Terminal Aerodrome Forecast
Issued by NWS

Home | Current Version | Previous Version | Text Only | Print | Product List | Glossary On
Versions: 1 2 3 4 5 6 7 8 9 10 11 12 13 14 15 16
000
FTUS43 KGRB 132300
TAFCWA
TAF
KCWA 132335Z 1400/1424 21007KT P6SM BKN050
     FM140200 18004KT P6SM FEW050
     FM140600 21005KT P6SM FEW050 SCT100
     FM141000 22006KT P6SM SCT100 BKN200
     FM141500 22010G16KT P6SM SCT070 BKN140
      AMD LTD TO CLD VIS AND WIND 1403/1411=

USA.gov is the U.S. government's official web portal to all federal, state and local government web resources and services.